createdAt,value
2017-12-27T00:00:33.692Z,994.32
2017-12-27T00:01:33.697Z,994.27
2017-12-27T00:02:33.709Z,994.21
2017-12-27T00:03:34.015Z,994.21
2017-12-27T00:04:33.724Z,994.20
2017-12-27T00:05:33.748Z,994.18
2017-12-27T00:06:33.752Z,994.17
2017-12-27T00:07:33.773Z,994.11
2017-12-27T00:08:33.782Z,994.09
2017-12-27T00:09:33.786Z,994.09
2017-12-27T00:10:33.806Z,994.11
2017-12-27T00:11:33.816Z,994.03
2017-12-27T00:12:33.826Z,994.05
2017-12-27T00:13:33.831Z,994.04
2017-12-27T00:14:33.844Z,994.02
2017-12-27T00:15:33.858Z,994.01
2017-12-27T00:16:33.872Z,993.98
2017-12-27T00:17:33.883Z,993.97
2017-12-27T00:18:33.889Z,993.95
2017-12-27T00:19:33.903Z,993.91
2017-12-27T00:20:33.902Z,993.95
2017-12-27T00:21:33.927Z,993.93
2017-12-27T00:22:33.932Z,993.92
2017-12-27T00:23:33.958Z,993.91
2017-12-27T00:24:33.955Z,993.88
2017-12-27T00:25:33.967Z,993.84
2017-12-27T00:26:33.979Z,993.82
2017-12-27T00:27:33.991Z,993.80
2017-12-27T00:28:33.998Z,993.79
2017-12-27T00:29:34.018Z,993.79
2017-12-27T00:30:34.016Z,993.78
2017-12-27T00:31:34.029Z,993.80
2017-12-27T00:32:34.051Z,993.81
2017-12-27T00:33:34.055Z,993.80
2017-12-27T00:34:34.069Z,993.78
2017-12-27T00:35:34.080Z,993.83
2017-12-27T00:36:34.082Z,993.79
2017-12-27T00:37:34.095Z,993.82
2017-12-27T00:38:34.401Z,993.81
2017-12-27T00:39:34.125Z,993.81
2017-12-27T00:40:34.138Z,993.77
2017-12-27T00:41:34.146Z,993.79
2017-12-27T00:42:34.156Z,993.75
2017-12-27T00:43:34.162Z,993.78
2017-12-27T00:44:34.170Z,993.73
2017-12-27T00:45:34.189Z,993.76
2017-12-27T00:46:34.200Z,993.72
2017-12-27T00:47:34.210Z,993.72
2017-12-27T00:48:34.220Z,993.70
2017-12-27T00:49:34.234Z,993.75
2017-12-27T00:50:34.233Z,993.72
2017-12-27T00:51:34.263Z,993.67
2017-12-27T00:52:34.266Z,993.69
2017-12-27T00:53:34.271Z,993.66
2017-12-27T00:54:34.287Z,993.59
2017-12-27T00:55:34.295Z,993.61
2017-12-27T00:56:34.304Z,993.59
2017-12-27T00:57:34.329Z,993.55
2017-12-27T00:58:34.627Z,993.53
2017-12-27T00:59:34.340Z,993.51
2017-12-27T01:00:34.349Z,993.47
2017-12-27T01:01:34.361Z,993.43
2017-12-27T01:02:34.367Z,993.45
2017-12-27T01:03:34.385Z,993.37
2017-12-27T01:04:34.392Z,993.42
2017-12-27T01:05:34.407Z,993.41
2017-12-27T01:06:34.411Z,993.38
2017-12-27T01:07:34.424Z,993.38
2017-12-27T01:08:34.432Z,993.41
2017-12-27T01:09:34.451Z,993.42
2017-12-27T01:10:34.463Z,993.39
2017-12-27T01:11:34.468Z,993.42
2017-12-27T01:12:34.477Z,993.37
2017-12-27T01:13:34.496Z,993.36
2017-12-27T01:14:34.495Z,993.36
2017-12-27T01:15:34.528Z,993.40
2017-12-27T01:16:34.529Z,993.38
2017-12-27T01:17:34.534Z,993.39
2017-12-27T01:18:34.548Z,993.38
2017-12-27T01:19:34.560Z,993.38
2017-12-27T01:20:34.568Z,993.47
2017-12-27T01:21:34.576Z,993.48
2017-12-27T01:22:34.591Z,993.48
2017-12-27T01:23:34.611Z,993.47
2017-12-27T01:24:34.613Z,993.55
2017-12-27T01:25:34.624Z,993.54
2017-12-27T01:26:34.638Z,993.56
2017-12-27T01:27:34.636Z,993.58
2017-12-27T01:28:34.656Z,993.59
2017-12-27T01:29:34.676Z,993.55
2017-12-27T01:30:34.675Z,993.58
2017-12-27T01:31:34.687Z,993.54
2017-12-27T01:32:34.696Z,993.53
2017-12-27T01:33:34.707Z,993.52
2017-12-27T01:34:34.727Z,993.52
2017-12-27T01:35:34.739Z,993.51
2017-12-27T01:36:34.742Z,993.52
2017-12-27T01:37:34.754Z,993.51
2017-12-27T01:38:35.058Z,993.49
2017-12-27T01:39:34.777Z,993.49
2017-12-27T01:40:34.782Z,993.51
2017-12-27T01:41:34.804Z,993.47
2017-12-27T01:42:34.811Z,993.46
2017-12-27T01:43:34.823Z,993.43
2017-12-27T01:44:34.831Z,993.40
2017-12-27T01:45:34.844Z,993.39
2017-12-27T01:46:34.844Z,993.37
2017-12-27T01:47:34.868Z,993.35
2017-12-27T01:48:34.887Z,993.34
2017-12-27T01:49:34.888Z,993.33
2017-12-27T01:50:34.902Z,993.29
2017-12-27T01:51:34.911Z,993.29
2017-12-27T01:52:34.914Z,993.19
2017-12-27T01:53:34.922Z,993.21
2017-12-27T01:54:34.944Z,993.18
2017-12-27T01:55:34.956Z,993.22
2017-12-27T01:56:34.960Z,993.24
2017-12-27T01:57:34.974Z,993.21
2017-12-27T01:58:34.985Z,993.22
2017-12-27T01:59:34.983Z,993.24
2017-12-27T02:00:35.011Z,993.18
2017-12-27T02:01:35.017Z,993.21
2017-12-27T02:02:35.023Z,993.19
2017-12-27T02:03:35.041Z,993.20
2017-12-27T02:04:35.044Z,993.24
2017-12-27T02:05:35.049Z,993.22
2017-12-27T02:06:35.063Z,993.25
2017-12-27T02:07:35.086Z,993.18
2017-12-27T02:08:35.094Z,993.18
2017-12-27T02:09:35.100Z,993.17
2017-12-27T02:10:35.105Z,993.09
2017-12-27T02:11:35.119Z,993.07
2017-12-27T02:12:35.134Z,993.03
2017-12-27T02:13:35.140Z,993.01
2017-12-27T02:14:35.158Z,992.99
2017-12-27T02:15:35.162Z,993.00
2017-12-27T02:16:35.172Z,992.98
2017-12-27T02:17:35.184Z,993.00
2017-12-27T02:18:35.190Z,992.93
2017-12-27T02:19:35.202Z,992.93
2017-12-27T02:20:35.224Z,992.93
2017-12-27T02:21:35.230Z,992.88
2017-12-27T02:22:35.254Z,992.92
2017-12-27T02:23:35.548Z,992.88
2017-12-27T02:24:35.254Z,992.88
2017-12-27T02:25:35.268Z,992.90
2017-12-27T02:26:35.274Z,992.90
2017-12-27T02:27:35.294Z,992.91
2017-12-27T02:28:35.297Z,992.94
2017-12-27T02:29:35.312Z,992.85
2017-12-27T02:30:35.325Z,992.84
2017-12-27T02:31:35.337Z,992.86
2017-12-27T02:32:35.339Z,992.78
2017-12-27T02:33:35.353Z,992.79
2017-12-27T02:34:35.357Z,992.71
2017-12-27T02:35:35.371Z,992.67
2017-12-27T02:36:35.397Z,992.65
2017-12-27T02:37:35.396Z,992.60
2017-12-27T02:38:35.716Z,992.61
2017-12-27T02:39:35.414Z,992.58
2017-12-27T02:40:35.422Z,992.63
2017-12-27T02:41:35.444Z,992.64
2017-12-27T02:42:35.441Z,992.62
2017-12-27T02:43:35.454Z,992.56
2017-12-27T02:44:35.471Z,992.57
2017-12-27T02:45:35.479Z,992.51
2017-12-27T02:46:35.500Z,992.47
2017-12-27T02:47:35.497Z,992.46
2017-12-27T02:48:35.515Z,992.45
2017-12-27T02:49:35.519Z,992.48
2017-12-27T02:50:35.531Z,992.46
2017-12-27T02:51:35.537Z,992.46
2017-12-27T02:52:35.547Z,992.46
2017-12-27T02:53:35.570Z,992.44
2017-12-27T02:54:35.575Z,992.41
2017-12-27T02:55:35.587Z,992.41
2017-12-27T02:56:35.596Z,992.35
2017-12-27T02:57:35.603Z,992.35
2017-12-27T02:58:35.907Z,992.35
2017-12-27T02:59:35.623Z,992.25
2017-12-27T03:00:35.630Z,992.19
2017-12-27T03:01:35.646Z,992.20
2017-12-27T03:02:35.660Z,992.13
2017-12-27T03:03:35.672Z,992.09
2017-12-27T03:04:35.674Z,992.07
2017-12-27T03:05:35.686Z,992.06
2017-12-27T03:06:35.691Z,992.02
2017-12-27T03:07:35.704Z,992.05
2017-12-27T03:08:35.714Z,992.03
2017-12-27T03:09:35.726Z,991.97
2017-12-27T03:10:35.750Z,991.93
2017-12-27T03:11:35.756Z,991.93
2017-12-27T03:12:35.757Z,991.97
2017-12-27T03:13:35.776Z,991.95
2017-12-27T03:14:35.775Z,991.92
2017-12-27T03:15:35.795Z,991.95
2017-12-27T03:16:35.797Z,991.98
2017-12-27T03:17:35.803Z,991.95
2017-12-27T03:18:35.830Z,991.91
2017-12-27T03:19:35.833Z,991.90
2017-12-27T03:20:35.842Z,991.93
2017-12-27T03:21:35.873Z,991.90
2017-12-27T03:22:35.859Z,991.90
2017-12-27T03:23:35.885Z,991.90
2017-12-27T03:24:35.881Z,991.87
2017-12-27T03:25:35.891Z,991.90
2017-12-27T03:26:35.900Z,991.90
2017-12-27T03:27:35.934Z,991.91
2017-12-27T03:28:35.925Z,991.91
2017-12-27T03:29:35.938Z,991.85
2017-12-27T03:30:35.942Z,991.88
2017-12-27T03:31:35.955Z,991.80
2017-12-27T03:32:35.963Z,991.82
2017-12-27T03:33:35.970Z,991.82
2017-12-27T03:34:35.983Z,991.85
2017-12-27T03:35:35.999Z,991.87
2017-12-27T03:36:36.015Z,991.84
2017-12-27T03:37:36.027Z,991.85
2017-12-27T03:38:36.032Z,991.81
2017-12-27T03:39:36.046Z,991.80
2017-12-27T03:40:36.048Z,991.78
2017-12-27T03:41:36.059Z,991.75
2017-12-27T03:42:36.065Z,991.71
2017-12-27T03:43:36.081Z,991.71
2017-12-27T03:44:36.086Z,991.71
2017-12-27T03:45:36.104Z,991.69
2017-12-27T03:46:36.112Z,991.67
2017-12-27T03:47:36.123Z,991.62
2017-12-27T03:48:36.138Z,991.62
2017-12-27T03:49:36.136Z,991.59
2017-12-27T03:50:36.157Z,991.58
2017-12-27T03:51:36.154Z,991.58
2017-12-27T03:52:36.164Z,991.57
2017-12-27T03:53:36.195Z,991.55
2017-12-27T03:54:36.200Z,991.52
2017-12-27T03:55:36.213Z,991.50
2017-12-27T03:56:36.216Z,991.51
2017-12-27T03:57:36.220Z,991.40
2017-12-27T03:58:36.538Z,991.38
2017-12-27T03:59:36.241Z,991.42
2017-12-27T04:00:36.253Z,991.43
2017-12-27T04:01:36.259Z,991.45
2017-12-27T04:02:36.277Z,991.46
2017-12-27T04:03:36.290Z,991.43
2017-12-27T04:04:36.298Z,991.43
2017-12-27T04:05:36.304Z,991.42
2017-12-27T04:06:36.317Z,991.39
2017-12-27T04:07:36.322Z,991.42
2017-12-27T04:08:36.329Z,991.40
2017-12-27T04:09:36.343Z,991.34
2017-12-27T04:10:36.349Z,991.33
2017-12-27T04:11:36.380Z,991.31
2017-12-27T04:12:36.382Z,991.30
2017-12-27T04:13:36.386Z,991.31
2017-12-27T04:14:36.401Z,991.28
2017-12-27T04:15:36.404Z,991.25
2017-12-27T04:16:36.421Z,991.18
2017-12-27T04:17:36.427Z,991.16
2017-12-27T04:18:36.432Z,991.15
2017-12-27T04:19:36.475Z,991.19
2017-12-27T04:20:36.473Z,991.18
2017-12-27T04:21:36.479Z,991.19
2017-12-27T04:22:36.483Z,991.22
2017-12-27T04:23:36.489Z,991.19
2017-12-27T04:24:36.497Z,991.19
2017-12-27T04:25:36.511Z,991.17
2017-12-27T04:26:36.522Z,991.14
2017-12-27T04:27:36.529Z,991.12
2017-12-27T04:28:36.543Z,991.11
2017-12-27T04:29:36.553Z,991.08
2017-12-27T04:30:36.574Z,991.08
2017-12-27T04:31:36.579Z,991.11
2017-12-27T04:32:36.588Z,991.08
2017-12-27T04:33:36.895Z,990.99
2017-12-27T04:34:36.599Z,991.02
2017-12-27T04:35:36.612Z,990.98
2017-12-27T04:36:36.620Z,990.92
2017-12-27T04:37:36.626Z,990.80
2017-12-27T04:38:36.651Z,990.81
2017-12-27T04:39:36.656Z,990.76
2017-12-27T04:40:36.665Z,990.76
2017-12-27T04:41:36.684Z,990.79
2017-12-27T04:42:36.691Z,990.79
2017-12-27T04:43:36.995Z,990.75
2017-12-27T04:44:36.704Z,990.68
2017-12-27T04:45:36.710Z,990.64
2017-12-27T04:46:36.730Z,990.63
2017-12-27T04:47:36.745Z,990.61
2017-12-27T04:48:36.749Z,990.59
2017-12-27T04:49:36.767Z,990.58
2017-12-27T04:50:36.766Z,990.53
2017-12-27T04:51:36.779Z,990.51
2017-12-27T04:52:36.789Z,990.46
2017-12-27T04:53:36.793Z,990.44
2017-12-27T04:54:36.813Z,990.46
2017-12-27T04:55:36.812Z,990.44
2017-12-27T04:56:36.823Z,990.43
2017-12-27T04:57:36.845Z,990.38
2017-12-27T04:58:37.154Z,990.39
2017-12-27T04:59:36.859Z,990.37
2017-12-27T05:00:36.868Z,990.35
2017-12-27T05:01:36.880Z,990.33
2017-12-27T05:02:36.894Z,990.32
2017-12-27T05:03:36.899Z,990.36
2017-12-27T05:04:36.914Z,990.28
2017-12-27T05:05:36.913Z,990.28
2017-12-27T05:06:36.945Z,990.28
2017-12-27T05:07:36.942Z,990.29
2017-12-27T05:08:36.951Z,990.28
2017-12-27T05:09:36.963Z,990.24
2017-12-27T05:10:36.975Z,990.24
2017-12-27T05:11:36.983Z,990.20
2017-12-27T05:12:36.998Z,990.17
2017-12-27T05:13:36.995Z,990.23
2017-12-27T05:14:37.009Z,990.25
2017-12-27T05:15:37.025Z,990.23
2017-12-27T05:16:37.035Z,990.25
2017-12-27T05:17:37.054Z,990.25
2017-12-27T05:18:37.052Z,990.25
2017-12-27T05:19:37.072Z,990.27
2017-12-27T05:20:37.081Z,990.27
2017-12-27T05:21:37.079Z,990.21
2017-12-27T05:22:37.099Z,990.21
2017-12-27T05:23:37.099Z,990.21
2017-12-27T05:24:37.113Z,990.21
2017-12-27T05:25:37.131Z,990.20
2017-12-27T05:26:37.136Z,990.22
2017-12-27T05:27:37.148Z,990.19
2017-12-27T05:28:37.458Z,990.16
2017-12-27T05:29:37.162Z,990.09
2017-12-27T05:30:37.175Z,990.01
2017-12-27T05:31:37.181Z,990.01
2017-12-27T05:32:37.192Z,989.96
2017-12-27T05:33:37.204Z,989.97
2017-12-27T05:34:37.220Z,989.89
2017-12-27T05:35:37.234Z,989.89
2017-12-27T05:36:37.243Z,989.90
2017-12-27T05:37:37.253Z,989.91
2017-12-27T05:38:37.259Z,989.94
2017-12-27T05:39:37.271Z,989.92
2017-12-27T05:40:37.273Z,989.87
2017-12-27T05:41:37.288Z,989.88
2017-12-27T05:42:37.297Z,989.85
2017-12-27T05:43:37.605Z,989.85
2017-12-27T05:44:37.325Z,989.84
2017-12-27T05:45:37.336Z,989.82
2017-12-27T05:46:37.343Z,989.82
2017-12-27T05:47:37.348Z,989.77
2017-12-27T05:48:37.357Z,989.71
2017-12-27T05:49:37.372Z,989.69
2017-12-27T05:50:37.375Z,989.67
2017-12-27T05:51:37.395Z,989.70
2017-12-27T05:52:37.396Z,989.69
2017-12-27T05:53:37.402Z,989.73
2017-12-27T05:54:37.426Z,989.70
2017-12-27T05:55:37.432Z,989.70
2017-12-27T05:56:37.447Z,989.76
2017-12-27T05:57:37.460Z,989.72
2017-12-27T05:58:37.470Z,989.71
2017-12-27T05:59:37.472Z,989.69
2017-12-27T06:00:37.481Z,989.68
2017-12-27T06:01:37.493Z,989.69
2017-12-27T06:02:37.504Z,989.75
2017-12-27T06:03:37.809Z,989.78
2017-12-27T06:04:37.512Z,989.79
2017-12-27T06:05:37.537Z,989.79
2017-12-27T06:06:37.548Z,989.78
2017-12-27T06:07:37.554Z,989.77
2017-12-27T06:08:37.570Z,989.78
2017-12-27T06:09:37.569Z,989.73
2017-12-27T06:10:37.588Z,989.73
2017-12-27T06:11:37.593Z,989.73
2017-12-27T06:12:37.602Z,989.70
2017-12-27T06:13:37.609Z,989.71
2017-12-27T06:14:37.631Z,989.63
2017-12-27T06:15:37.640Z,989.59
2017-12-27T06:16:37.654Z,989.49
2017-12-27T06:17:37.652Z,989.50
2017-12-27T06:18:37.966Z,989.46
2017-12-27T06:19:37.677Z,989.43
2017-12-27T06:20:37.685Z,989.41
2017-12-27T06:21:37.697Z,989.41
2017-12-27T06:22:37.703Z,989.40
2017-12-27T06:23:37.715Z,989.40
2017-12-27T06:24:37.719Z,989.41
2017-12-27T06:25:37.730Z,989.43
2017-12-27T06:26:37.750Z,989.37
2017-12-27T06:27:37.756Z,989.32
2017-12-27T06:28:37.762Z,989.30
2017-12-27T06:29:37.782Z,989.27
2017-12-27T06:30:37.786Z,989.19
2017-12-27T06:31:37.792Z,989.23
2017-12-27T06:32:37.802Z,989.19
2017-12-27T06:33:37.812Z,989.14
2017-12-27T06:34:37.823Z,989.13
2017-12-27T06:35:37.825Z,989.13
2017-12-27T06:36:37.844Z,989.11
2017-12-27T06:37:37.854Z,989.08
2017-12-27T06:38:38.164Z,989.04
2017-12-27T06:39:37.883Z,989.01
2017-12-27T06:40:37.885Z,989.00
2017-12-27T06:41:37.897Z,988.96
2017-12-27T06:42:37.903Z,988.97
2017-12-27T06:43:37.909Z,988.92
2017-12-27T06:44:37.923Z,988.96
2017-12-27T06:45:37.934Z,988.87
2017-12-27T06:46:37.935Z,988.86
2017-12-27T06:47:37.954Z,988.91
2017-12-27T06:48:37.958Z,988.88
2017-12-27T06:49:37.980Z,988.79
2017-12-27T06:50:37.987Z,988.81
2017-12-27T06:51:37.992Z,988.79
2017-12-27T06:52:38.010Z,988.84
2017-12-27T06:53:38.019Z,988.82
2017-12-27T06:54:38.022Z,988.84
2017-12-27T06:55:38.031Z,988.78
2017-12-27T06:56:38.041Z,988.81
2017-12-27T06:57:38.052Z,988.79
2017-12-27T06:58:38.064Z,988.87
2017-12-27T06:59:38.064Z,988.86
2017-12-27T07:00:38.082Z,988.84
2017-12-27T07:01:38.098Z,988.83
2017-12-27T07:02:38.107Z,988.83
2017-12-27T07:03:38.120Z,988.80
2017-12-27T07:04:38.129Z,988.76
2017-12-27T07:05:38.129Z,988.78
2017-12-27T07:06:38.144Z,988.79
2017-12-27T07:07:38.151Z,988.87
2017-12-27T07:08:38.166Z,988.87
2017-12-27T07:09:38.165Z,988.80
2017-12-27T07:10:38.177Z,988.82
2017-12-27T07:11:38.188Z,988.81
2017-12-27T07:12:38.191Z,988.83
2017-12-27T07:13:38.215Z,988.85
2017-12-27T07:14:38.222Z,988.81
2017-12-27T07:15:38.241Z,988.79
2017-12-27T07:16:38.242Z,988.76
2017-12-27T07:17:38.247Z,988.78
2017-12-27T07:18:38.268Z,988.71
2017-12-27T07:19:38.265Z,988.74
2017-12-27T07:20:38.274Z,988.76
2017-12-27T07:21:38.287Z,988.77
2017-12-27T07:22:38.292Z,988.78
2017-12-27T07:23:38.607Z,988.76
2017-12-27T07:24:38.320Z,988.75
2017-12-27T07:25:38.331Z,988.75
2017-12-27T07:26:38.345Z,988.73
2017-12-27T07:27:38.349Z,988.70
2017-12-27T07:28:38.364Z,988.72
2017-12-27T07:29:38.372Z,988.74
2017-12-27T07:30:38.376Z,988.65
2017-12-27T07:31:38.389Z,988.68
2017-12-27T07:32:38.398Z,988.65
2017-12-27T07:33:38.409Z,988.63
2017-12-27T07:34:38.415Z,988.54
2017-12-27T07:35:38.422Z,988.56
2017-12-27T07:36:38.429Z,988.59
2017-12-27T07:37:38.454Z,988.55
2017-12-27T07:38:38.715Z,988.51
2017-12-27T07:39:38.472Z,988.51
2017-12-27T07:40:38.481Z,988.46
2017-12-27T07:41:38.485Z,988.44
2017-12-27T07:42:38.499Z,988.38
2017-12-27T07:43:38.511Z,988.38
2017-12-27T07:44:38.514Z,988.38
2017-12-27T07:45:38.526Z,988.36
2017-12-27T07:46:38.538Z,988.30
2017-12-27T07:47:38.557Z,988.28
2017-12-27T07:48:38.565Z,988.26
2017-12-27T07:49:38.570Z,988.25
2017-12-27T07:50:38.582Z,988.24
2017-12-27T07:51:38.592Z,988.19
2017-12-27T07:52:38.603Z,988.22
2017-12-27T07:53:38.609Z,988.20
2017-12-27T07:54:38.615Z,988.22
2017-12-27T07:55:38.635Z,988.22
2017-12-27T07:56:38.637Z,988.23
2017-12-27T07:57:38.660Z,988.23
2017-12-27T07:58:38.666Z,988.18
2017-12-27T07:59:38.672Z,988.22
2017-12-27T08:00:38.686Z,988.22
2017-12-27T08:01:38.693Z,988.13
2017-12-27T08:02:38.698Z,988.09
2017-12-27T08:03:39.011Z,988.08
2017-12-27T08:04:38.720Z,988.07
2017-12-27T08:05:38.732Z,988.09
2017-12-27T08:06:38.749Z,988.10
2017-12-27T08:07:38.755Z,988.09
2017-12-27T08:08:38.771Z,988.09
2017-12-27T08:09:38.777Z,988.04
2017-12-27T08:10:38.781Z,988.02
2017-12-27T08:11:38.801Z,988.01
2017-12-27T08:12:38.803Z,988.00
2017-12-27T08:13:38.809Z,988.02
2017-12-27T08:14:38.833Z,988.00
2017-12-27T08:15:38.845Z,988.04
2017-12-27T08:16:38.854Z,988.04
2017-12-27T08:17:38.860Z,988.02
2017-12-27T08:18:38.871Z,988.03
2017-12-27T08:19:38.885Z,988.01
2017-12-27T08:20:38.888Z,987.92
2017-12-27T08:21:38.892Z,987.85
2017-12-27T08:22:38.917Z,987.87
2017-12-27T08:23:39.222Z,987.89
2017-12-27T08:24:38.931Z,987.93
2017-12-27T08:25:38.948Z,987.91
2017-12-27T08:26:38.955Z,987.93
2017-12-27T08:27:38.969Z,987.84
2017-12-27T08:28:38.971Z,987.86
2017-12-27T08:29:38.994Z,987.84
2017-12-27T08:30:39.018Z,987.78
2017-12-27T08:31:39.005Z,987.74
2017-12-27T08:32:39.021Z,987.76
2017-12-27T08:33:39.027Z,987.74
2017-12-27T08:34:39.033Z,987.73
2017-12-27T08:35:39.064Z,987.70
2017-12-27T08:36:39.073Z,987.71
2017-12-27T08:37:39.071Z,987.72
2017-12-27T08:38:39.391Z,987.75
2017-12-27T08:39:39.096Z,987.72
2017-12-27T08:40:39.098Z,987.68
2017-12-27T08:41:39.131Z,987.67
2017-12-27T08:42:39.134Z,987.62
2017-12-27T08:43:39.148Z,987.61
2017-12-27T08:44:39.157Z,987.63
2017-12-27T08:45:39.156Z,987.56
2017-12-27T08:46:39.176Z,987.57
2017-12-27T08:47:39.188Z,987.59
2017-12-27T08:48:39.195Z,987.54
2017-12-27T08:49:39.213Z,987.52
2017-12-27T08:50:39.218Z,987.52
2017-12-27T08:51:39.231Z,987.51
2017-12-27T08:52:39.236Z,987.52
2017-12-27T08:53:39.252Z,987.46
2017-12-27T08:54:39.264Z,987.45
2017-12-27T08:55:39.275Z,987.45
2017-12-27T08:56:39.278Z,987.50
2017-12-27T08:57:39.292Z,987.48
2017-12-27T08:58:39.308Z,987.50
2017-12-27T08:59:39.330Z,987.53
2017-12-27T09:00:39.331Z,987.57
2017-12-27T09:01:39.335Z,987.57
2017-12-27T09:02:39.349Z,987.59
2017-12-27T09:03:39.366Z,987.64
2017-12-27T09:04:39.375Z,987.59
2017-12-27T09:05:39.388Z,987.61
2017-12-27T09:06:39.392Z,987.54
2017-12-27T09:07:39.406Z,987.56
2017-12-27T09:08:39.426Z,987.58
2017-12-27T09:09:39.438Z,987.56
2017-12-27T09:10:39.450Z,987.51
2017-12-27T09:11:39.456Z,987.55
2017-12-27T09:12:39.460Z,987.56
2017-12-27T09:13:39.490Z,987.58
2017-12-27T09:14:39.499Z,987.53
2017-12-27T09:15:39.504Z,987.50
2017-12-27T09:16:39.505Z,987.50
2017-12-27T09:17:39.531Z,987.48
2017-12-27T09:18:39.536Z,987.42
2017-12-27T09:19:39.550Z,987.40
2017-12-27T09:20:39.558Z,987.42
2017-12-27T09:21:39.575Z,987.40
2017-12-27T09:22:39.596Z,987.39
2017-12-27T09:23:39.593Z,987.38
2017-12-27T09:24:39.609Z,987.34
2017-12-27T09:25:39.632Z,987.31
2017-12-27T09:26:39.639Z,987.26
2017-12-27T09:27:39.647Z,987.26
2017-12-27T09:28:39.667Z,987.22
2017-12-27T09:29:39.671Z,987.19
2017-12-27T09:30:39.685Z,987.15
2017-12-27T09:31:39.701Z,987.12
2017-12-27T09:32:39.698Z,987.14
2017-12-27T09:33:39.731Z,987.12
2017-12-27T09:34:39.735Z,987.07
2017-12-27T09:35:39.742Z,987.04
2017-12-27T09:36:39.763Z,987.03
2017-12-27T09:37:39.768Z,986.95
2017-12-27T09:38:39.780Z,986.92
2017-12-27T09:39:39.792Z,986.91
2017-12-27T09:40:39.795Z,986.86
2017-12-27T09:41:39.820Z,986.85
2017-12-27T09:42:39.831Z,986.84
2017-12-27T09:43:39.847Z,986.83
2017-12-27T09:44:39.849Z,986.85
2017-12-27T09:45:39.863Z,986.80
2017-12-27T09:46:39.877Z,986.79
2017-12-27T09:47:39.895Z,986.77
2017-12-27T09:48:39.909Z,986.79
2017-12-27T09:49:39.917Z,986.75
2017-12-27T09:50:39.921Z,986.71
2017-12-27T09:51:39.934Z,986.71
2017-12-27T09:52:39.955Z,986.64
2017-12-27T09:53:39.967Z,986.62
2017-12-27T09:54:39.979Z,986.59
2017-12-27T09:55:39.990Z,986.59
2017-12-27T09:56:39.998Z,986.51
2017-12-27T09:57:40.019Z,986.50
2017-12-27T09:58:40.020Z,986.50
2017-12-27T09:59:40.049Z,986.48
2017-12-27T10:00:40.055Z,986.47
2017-12-27T10:01:40.062Z,986.49
2017-12-27T10:02:40.085Z,986.47
2017-12-27T10:03:40.454Z,986.47
2017-12-27T10:04:40.094Z,986.42
2017-12-27T10:05:40.127Z,986.40
2017-12-27T10:06:40.132Z,986.40
2017-12-27T10:07:40.144Z,986.37
2017-12-27T10:08:40.149Z,986.32
2017-12-27T10:09:40.206Z,986.33
2017-12-27T10:10:40.178Z,986.31
2017-12-27T10:11:40.201Z,986.30
2017-12-27T10:12:40.209Z,986.24
2017-12-27T10:13:40.216Z,986.28
2017-12-27T10:14:40.235Z,986.24
2017-12-27T10:15:40.248Z,986.19
2017-12-27T10:16:40.267Z,986.19
2017-12-27T10:17:40.273Z,986.16
2017-12-27T10:18:40.286Z,986.12
2017-12-27T10:19:40.303Z,986.10
2017-12-27T10:20:40.319Z,986.12
2017-12-27T10:21:40.326Z,986.11
2017-12-27T10:22:40.337Z,986.14
2017-12-27T10:23:40.363Z,986.10
2017-12-27T10:24:40.372Z,986.08
2017-12-27T10:25:40.369Z,986.06
2017-12-27T10:26:40.401Z,986.11
2017-12-27T10:27:40.406Z,986.07
2017-12-27T10:28:40.409Z,986.12
2017-12-27T10:29:40.441Z,986.07
2017-12-27T10:30:40.449Z,986.12
2017-12-27T10:31:40.465Z,986.11
2017-12-27T10:32:40.478Z,986.06
2017-12-27T10:33:40.484Z,986.03
2017-12-27T10:34:40.503Z,986.06
2017-12-27T10:35:40.514Z,986.06
2017-12-27T10:36:40.518Z,986.05
2017-12-27T10:37:40.549Z,985.99
2017-12-27T10:38:40.848Z,986.00
2017-12-27T10:39:40.572Z,985.94
2017-12-27T10:40:40.581Z,985.87
2017-12-27T10:41:40.595Z,985.89
2017-12-27T10:42:40.611Z,985.84
2017-12-27T10:43:40.618Z,985.87
2017-12-27T10:44:40.639Z,985.88
2017-12-27T10:45:40.651Z,985.87
2017-12-27T10:46:40.668Z,985.83
2017-12-27T10:47:40.681Z,985.81
2017-12-27T10:48:40.703Z,985.81
2017-12-27T10:49:40.708Z,985.73
2017-12-27T10:50:40.728Z,985.71
2017-12-27T10:51:40.744Z,985.72
2017-12-27T10:52:40.753Z,985.72
2017-12-27T10:53:40.779Z,985.70
2017-12-27T10:54:40.778Z,985.64
2017-12-27T10:55:40.791Z,985.63
2017-12-27T10:56:40.819Z,985.58
2017-12-27T10:57:40.822Z,985.58
2017-12-27T10:58:40.842Z,985.63
2017-12-27T10:59:40.847Z,985.57
2017-12-27T11:00:40.869Z,985.55
2017-12-27T11:01:40.881Z,985.56
2017-12-27T11:02:40.906Z,985.49
2017-12-27T11:03:40.912Z,985.46
2017-12-27T11:04:40.932Z,985.47
2017-12-27T11:05:40.936Z,985.35
2017-12-27T11:06:40.962Z,985.34
2017-12-27T11:07:40.968Z,985.30
2017-12-27T11:08:40.977Z,985.27
2017-12-27T11:09:41.002Z,985.22
2017-12-27T11:10:41.020Z,985.24
2017-12-27T11:11:41.032Z,985.25
2017-12-27T11:12:41.047Z,985.23
2017-12-27T11:13:41.065Z,985.15
2017-12-27T11:14:41.095Z,985.13
2017-12-27T11:15:41.089Z,985.09
2017-12-27T11:16:41.098Z,985.05
2017-12-27T11:17:41.124Z,985.03
2017-12-27T11:18:41.428Z,984.99
2017-12-27T11:19:41.160Z,984.98
2017-12-27T11:20:41.169Z,984.95
2017-12-27T11:21:41.180Z,984.89
2017-12-27T11:22:41.188Z,984.94
2017-12-27T11:23:41.221Z,984.89
2017-12-27T11:24:41.224Z,984.93
2017-12-27T11:25:41.240Z,984.88
2017-12-27T11:26:41.253Z,984.80
2017-12-27T11:27:41.273Z,984.83
2017-12-27T11:28:41.279Z,984.82
2017-12-27T11:29:41.312Z,984.78
2017-12-27T11:30:41.310Z,984.87
2017-12-27T11:31:41.334Z,984.81
2017-12-27T11:32:41.344Z,984.76
2017-12-27T11:33:41.361Z,984.77
2017-12-27T11:34:41.375Z,984.70
2017-12-27T11:35:41.391Z,984.72
2017-12-27T11:36:41.407Z,984.67
2017-12-27T11:37:41.414Z,984.63
2017-12-27T11:38:41.738Z,984.60
2017-12-27T11:39:41.463Z,984.56
2017-12-27T11:40:41.466Z,984.51
2017-12-27T11:41:41.478Z,984.48
2017-12-27T11:42:41.504Z,984.43
2017-12-27T11:43:41.520Z,984.43
2017-12-27T11:44:41.521Z,984.39
2017-12-27T11:45:41.537Z,984.35
2017-12-27T11:46:41.559Z,984.31
2017-12-27T11:47:41.576Z,984.26
2017-12-27T11:48:41.586Z,984.25
2017-12-27T11:49:41.599Z,984.27
2017-12-27T11:50:41.617Z,984.26
2017-12-27T11:51:41.652Z,984.25
2017-12-27T11:52:41.643Z,984.21
2017-12-27T11:53:41.669Z,984.19
2017-12-27T11:54:41.674Z,984.19
2017-12-27T11:55:41.698Z,984.18
2017-12-27T11:56:41.707Z,984.20
2017-12-27T11:57:41.725Z,984.20
2017-12-27T11:58:41.738Z,984.19
2017-12-27T11:59:41.756Z,984.13
2017-12-27T12:00:41.774Z,984.13
2017-12-27T12:01:41.793Z,984.06
2017-12-27T12:02:41.795Z,984.06
2017-12-27T12:03:42.620Z,984.02
2017-12-27T12:04:41.840Z,983.99
2017-12-27T12:05:41.846Z,983.85
2017-12-27T12:06:41.865Z,983.89
2017-12-27T12:07:41.882Z,983.89
2017-12-27T12:08:41.885Z,983.90
2017-12-27T12:09:41.911Z,983.86
2017-12-27T12:10:41.915Z,983.82
2017-12-27T12:11:41.947Z,983.82
2017-12-27T12:12:41.949Z,983.76
2017-12-27T12:13:41.968Z,983.73
2017-12-27T12:14:41.980Z,983.69
2017-12-27T12:15:42.005Z,983.67
2017-12-27T12:16:42.006Z,983.65
2017-12-27T12:17:42.032Z,983.55
2017-12-27T12:18:42.044Z,983.55
2017-12-27T12:19:42.062Z,983.53
2017-12-27T12:20:42.071Z,983.46
2017-12-27T12:21:42.095Z,983.45
2017-12-27T12:22:42.108Z,983.40
2017-12-27T12:23:42.418Z,983.36
2017-12-27T12:24:42.135Z,983.33
2017-12-27T12:25:42.154Z,983.35
2017-12-27T12:26:42.158Z,983.36
2017-12-27T12:27:42.189Z,983.43
2017-12-27T12:28:42.200Z,983.40